createdAt,value
2023-03-30T00:00:24.746Z,77.80
2023-03-30T00:02:54.028Z,77.42
2023-03-30T00:05:24.039Z,77.35
2023-03-30T00:07:52.340Z,77.18
2023-03-30T00:10:22.837Z,77.34
2023-03-30T00:12:52.998Z,77.68
2023-03-30T00:15:23.896Z,77.51
2023-03-30T00:17:55.092Z,77.28
2023-03-30T00:20:23.868Z,77.62
2023-03-30T00:22:52.344Z,77.66
2023-03-30T00:25:23.440Z,77.78
2023-03-30T00:27:52.001Z,77.32
2023-03-30T00:30:20.856Z,77.39
2023-03-30T00:32:49.253Z,77.25
2023-03-30T00:35:17.831Z,77.43
2023-03-30T00:37:49.591Z,77.63
2023-03-30T00:40:20.383Z,77.54
2023-03-30T00:42:51.206Z,77.15
2023-03-30T00:45:24.620Z,77.41
2023-03-30T00:48:02.802Z,77.55
2023-03-30T00:50:36.291Z,77.73
2023-03-30T00:53:11.877Z,77.44
2023-03-30T00:55:41.997Z,78.02
2023-03-30T00:58:13.179Z,77.78
2023-03-30T01:00:43.686Z,78.20
2023-03-30T01:03:18.929Z,77.88
2023-03-30T01:05:47.721Z,78.38
2023-03-30T01:08:18.430Z,78.08
2023-03-30T01:10:48.189Z,78.25
2023-03-30T01:13:18.865Z,78.34
2023-03-30T01:16:01.403Z,78.05
2023-03-30T01:18:38.770Z,77.90
2023-03-30T01:21:35.779Z,77.89
2023-03-30T01:24:50.262Z,77.77
2023-03-30T01:27:46.384Z,77.54
2023-03-30T01:30:31.082Z,77.66
2023-03-30T01:33:25.704Z,77.47
2023-03-30T01:36:34.282Z,78.00
2023-03-30T01:39:23.522Z,78.01
2023-03-30T01:41:59.696Z,77.78
2023-03-30T01:44:35.812Z,78.36
2023-03-30T01:47:12.162Z,78.46
2023-03-30T01:49:46.459Z,78.26
2023-03-30T01:52:23.341Z,78.02
2023-03-30T01:55:00.510Z,78.41
2023-03-30T01:57:34.107Z,77.94
2023-03-30T02:00:13.205Z,77.94
2023-03-30T02:02:47.231Z,77.94
2023-03-30T02:05:18.787Z,78.17
2023-03-30T02:07:54.079Z,78.09
2023-03-30T02:10:28.786Z,78.14
2023-03-30T02:13:00.169Z,78.21
2023-03-30T02:15:35.013Z,77.55
2023-03-30T02:18:05.098Z,77.71
2023-03-30T02:20:34.607Z,77.85
2023-03-30T02:23:06.226Z,77.97
2023-03-30T02:25:39.196Z,77.61
2023-03-30T02:28:09.778Z,77.15
2023-03-30T02:30:42.554Z,77.37
2023-03-30T02:33:18.624Z,77.12
2023-03-30T02:36:07.151Z,77.29
2023-03-30T02:38:54.679Z,77.21
2023-03-30T02:41:38.880Z,77.08
2023-03-30T02:44:17.441Z,77.48
2023-03-30T02:47:01.175Z,77.60
2023-03-30T02:49:40.617Z,77.70
2023-03-30T02:52:18.622Z,78.02
2023-03-30T02:54:53.709Z,78.10
2023-03-30T02:58:07.850Z,78.40
2023-03-30T03:00:45.898Z,78.52
2023-03-30T03:03:25.128Z,78.01
2023-03-30T03:05:56.538Z,78.11
2023-03-30T03:08:35.365Z,78.47
2023-03-30T03:11:05.738Z,78.70
2023-03-30T03:13:37.158Z,78.44
2023-03-30T03:16:11.265Z,78.76
2023-03-30T03:18:42.469Z,78.46
2023-03-30T03:21:12.507Z,78.65
2023-03-30T03:23:42.644Z,78.96
2023-03-30T03:26:13.138Z,79.01
2023-03-30T03:28:43.046Z,78.81
2023-03-30T03:31:12.659Z,79.04
2023-03-30T03:33:41.864Z,79.05
2023-03-30T03:36:24.155Z,79.28
2023-03-30T03:38:54.982Z,79.22
2023-03-30T03:41:23.391Z,79.21
2023-03-30T03:43:53.539Z,78.68
2023-03-30T03:46:22.024Z,78.87
2023-03-30T03:48:50.397Z,78.85
2023-03-30T03:51:18.881Z,79.21
2023-03-30T03:53:48.430Z,79.11
2023-03-30T03:56:17.071Z,78.77
2023-03-30T03:58:45.452Z,78.77
2023-03-30T04:01:15.447Z,78.26
2023-03-30T04:03:43.807Z,78.62
2023-03-30T04:06:12.602Z,78.29
2023-03-30T04:08:41.274Z,78.89
2023-03-30T04:11:23.180Z,78.79
2023-03-30T04:14:11.753Z,78.19
2023-03-30T04:16:58.418Z,78.37
2023-03-30T04:19:47.050Z,78.58
2023-03-30T04:22:27.629Z,78.84
2023-03-30T04:25:34.129Z,79.08
2023-03-30T04:28:29.902Z,79.17
2023-03-30T04:31:13.078Z,78.67
2023-03-30T04:34:09.658Z,78.62
2023-03-30T04:36:58.233Z,78.66
2023-03-30T04:39:59.025Z,78.68
2023-03-30T04:42:38.010Z,78.31
2023-03-30T04:45:25.135Z,78.61
2023-03-30T04:48:02.718Z,78.74
2023-03-30T04:50:56.014Z,79.02
2023-03-30T04:53:44.618Z,78.77
2023-03-30T04:56:19.274Z,78.54
2023-03-30T04:59:10.334Z,78.60
2023-03-30T05:01:57.472Z,78.51
2023-03-30T05:04:44.858Z,78.59
2023-03-30T05:07:39.313Z,78.93
2023-03-30T05:10:26.619Z,78.63
2023-03-30T05:12:55.647Z,78.54
2023-03-30T05:15:37.294Z,79.02
2023-03-30T05:18:05.808Z,78.66
2023-03-30T05:20:50.913Z,78.83
2023-03-30T05:23:39.984Z,79.02
2023-03-30T05:26:29.089Z,79.24
2023-03-30T05:29:35.761Z,79.23
2023-03-30T05:32:21.694Z,79.58
2023-03-30T05:35:07.908Z,79.83
2023-03-30T05:38:07.597Z,79.14
2023-03-30T05:40:58.421Z,79.76
2023-03-30T05:43:34.176Z,79.90
2023-03-30T05:46:21.657Z,79.76
2023-03-30T05:49:12.815Z,79.94
2023-03-30T05:52:01.687Z,80.47
2023-03-30T05:54:56.038Z,80.68
2023-03-30T05:57:55.132Z,80.72
2023-03-30T06:00:33.521Z,80.36
2023-03-30T06:03:10.415Z,80.41
2023-03-30T06:05:41.479Z,79.96
2023-03-30T06:08:09.908Z,80.09
2023-03-30T06:10:39.035Z,80.35
2023-03-30T06:13:12.024Z,79.85
2023-03-30T06:15:49.840Z,79.97
2023-03-30T06:18:22.699Z,80.23
2023-03-30T06:20:57.493Z,79.67
2023-03-30T06:23:26.431Z,79.87
2023-03-30T06:25:57.832Z,80.08
2023-03-30T06:28:32.384Z,79.84
2023-03-30T06:31:03.319Z,80.29
2023-03-30T06:33:32.840Z,79.90
2023-03-30T06:36:03.204Z,80.13
2023-03-30T06:38:32.166Z,80.40
2023-03-30T06:41:08.461Z,79.78
2023-03-30T06:43:41.198Z,80.27
2023-03-30T06:46:16.360Z,80.27
2023-03-30T06:48:48.616Z,80.40
2023-03-30T06:51:34.076Z,80.48
2023-03-30T06:54:03.119Z,80.69
2023-03-30T06:56:31.813Z,80.53
2023-03-30T06:59:10.514Z,80.39
2023-03-30T07:01:57.619Z,80.63
2023-03-30T07:04:46.934Z,80.46
2023-03-30T07:07:38.157Z,81.00
2023-03-30T07:10:11.269Z,80.65
2023-03-30T07:12:40.894Z,80.46
2023-03-30T07:15:12.553Z,81.20
2023-03-30T07:17:42.165Z,81.10
2023-03-30T07:20:15.057Z,81.32
2023-03-30T07:23:11.468Z,81.43
2023-03-30T07:25:41.433Z,81.30
2023-03-30T07:28:22.855Z,81.43
2023-03-30T07:30:53.126Z,81.66
2023-03-30T07:33:23.289Z,81.60
2023-03-30T07:35:53.133Z,81.88
2023-03-30T07:38:25.751Z,81.93
2023-03-30T07:40:55.876Z,82.04
2023-03-30T07:43:27.273Z,82.33
2023-03-30T07:45:59.540Z,82.32
2023-03-30T07:48:34.635Z,82.63
2023-03-30T07:51:04.907Z,82.09
2023-03-30T07:53:36.267Z,82.30
2023-03-30T07:56:11.268Z,82.29
2023-03-30T07:58:49.336Z,82.24
2023-03-30T08:01:21.395Z,82.39
2023-03-30T08:04:12.912Z,82.51
2023-03-30T08:06:42.397Z,82.70
2023-03-30T08:09:10.835Z,82.19
2023-03-30T08:11:39.735Z,82.38
2023-03-30T08:14:08.186Z,81.98
2023-03-30T08:16:39.203Z,82.27
2023-03-30T08:19:08.352Z,82.63
2023-03-30T08:21:36.622Z,82.28
2023-03-30T08:24:05.317Z,82.33
2023-03-30T08:26:33.604Z,82.49
2023-03-30T08:29:02.406Z,83.37
2023-03-30T08:31:33.044Z,83.08
2023-03-30T08:34:03.806Z,83.09
2023-03-30T08:36:32.366Z,83.64
2023-03-30T08:39:01.053Z,83.20
2023-03-30T08:41:50.886Z,83.13
2023-03-30T08:44:30.571Z,83.11
2023-03-30T08:47:00.486Z,83.54
2023-03-30T08:49:34.563Z,83.10
2023-03-30T08:52:06.019Z,82.93
2023-03-30T08:54:35.205Z,83.28
2023-03-30T08:57:11.650Z,83.17
2023-03-30T08:59:48.024Z,83.16
2023-03-30T09:02:23.524Z,83.33
2023-03-30T09:05:02.289Z,82.68
2023-03-30T09:07:33.428Z,82.83
2023-03-30T09:10:02.261Z,82.84
2023-03-30T09:12:40.056Z,83.07
2023-03-30T09:15:16.640Z,82.88
2023-03-30T09:17:48.560Z,82.81
2023-03-30T09:20:24.120Z,82.63
2023-03-30T09:22:54.714Z,82.30
2023-03-30T09:25:32.629Z,82.02
2023-03-30T09:28:07.769Z,82.14
2023-03-30T09:30:41.204Z,82.17
2023-03-30T09:33:22.467Z,82.22
2023-03-30T09:36:05.396Z,82.25
2023-03-30T09:38:34.514Z,82.70
2023-03-30T09:41:09.152Z,81.93
2023-03-30T09:43:44.251Z,82.76
2023-03-30T09:46:15.060Z,82.24
2023-03-30T09:48:45.635Z,81.83
2023-03-30T09:51:21.634Z,80.43
2023-03-30T09:53:52.821Z,80.23
2023-03-30T09:56:31.372Z,80.50
2023-03-30T09:58:59.888Z,80.19
2023-03-30T10:01:39.840Z,79.98
2023-03-30T10:04:11.905Z,79.56
2023-03-30T10:06:48.442Z,78.48
2023-03-30T10:09:20.682Z,78.58
2023-03-30T10:11:51.264Z,77.86
2023-03-30T10:14:32.124Z,77.61
2023-03-30T10:17:02.091Z,77.13
2023-03-30T10:19:31.324Z,77.47
2023-03-30T10:22:04.641Z,76.53
2023-03-30T10:24:36.892Z,74.62
2023-03-30T10:27:13.429Z,74.47
2023-03-30T10:29:46.871Z,75.12
2023-03-30T10:32:18.568Z,74.64
2023-03-30T10:34:49.315Z,73.80
2023-03-30T10:37:24.112Z,73.51
2023-03-30T10:39:53.984Z,74.14
2023-03-30T10:42:26.496Z,74.38
2023-03-30T10:44:57.301Z,72.95
2023-03-30T10:47:50.614Z,72.30
2023-03-30T10:50:28.810Z,71.80
2023-03-30T10:53:09.530Z,71.17
2023-03-30T10:55:44.477Z,70.94
2023-03-30T10:58:28.651Z,71.18
2023-03-30T11:01:08.261Z,70.99
2023-03-30T11:03:40.473Z,70.52
2023-03-30T11:06:16.488Z,68.65
2023-03-30T11:08:49.268Z,68.41
2023-03-30T11:11:22.841Z,67.45
2023-03-30T11:13:55.879Z,67.41
2023-03-30T11:16:28.602Z,67.47
2023-03-30T11:19:04.228Z,67.46
2023-03-30T11:21:37.338Z,67.65
2023-03-30T11:24:13.853Z,67.50
2023-03-30T11:26:49.275Z,67.82
2023-03-30T11:29:33.137Z,68.20
2023-03-30T11:32:26.735Z,68.27
2023-03-30T11:35:09.332Z,66.92
2023-03-30T11:37:54.174Z,66.25
2023-03-30T11:40:39.155Z,66.81
2023-03-30T11:43:18.804Z,66.65
2023-03-30T11:46:00.718Z,66.40
2023-03-30T11:49:01.386Z,65.72
2023-03-30T11:51:43.115Z,65.27
2023-03-30T11:54:27.284Z,65.40
2023-03-30T11:57:04.502Z,65.51
2023-03-30T11:59:46.616Z,65.35
2023-03-30T12:02:26.859Z,65.00
2023-03-30T12:05:01.700Z,64.20
2023-03-30T12:07:38.472Z,64.60
2023-03-30T12:10:16.038Z,64.57
2023-03-30T12:12:49.540Z,64.09
2023-03-30T12:15:36.129Z,63.02
2023-03-30T12:18:13.759Z,62.66
2023-03-30T12:20:47.305Z,62.33
2023-03-30T12:23:24.257Z,62.21
2023-03-30T12:26:08.276Z,62.45
2023-03-30T12:29:20.852Z,61.94
2023-03-30T12:32:04.350Z,62.67
2023-03-30T12:34:36.444Z,61.42
2023-03-30T12:37:10.341Z,62.06
2023-03-30T12:39:50.434Z,61.80
2023-03-30T12:42:28.047Z,61.97
2023-03-30T12:45:15.344Z,61.06
2023-03-30T12:48:08.217Z,60.44
2023-03-30T12:50:46.778Z,60.98
2023-03-30T12:53:50.447Z,60.75
2023-03-30T12:56:29.090Z,60.55
2023-03-30T12:59:28.282Z,59.27
2023-03-30T13:02:08.797Z,59.93
2023-03-30T13:04:40.159Z,59.69
2023-03-30T13:07:15.338Z,58.55
2023-03-30T13:09:56.693Z,58.61
2023-03-30T13:12:35.102Z,58.15
2023-03-30T13:15:07.538Z,58.12
2023-03-30T13:18:00.642Z,57.90
2023-03-30T13:20:32.904Z,58.22
2023-03-30T13:23:08.030Z,56.82
2023-03-30T13:25:41.955Z,56.61
2023-03-30T13:28:35.142Z,57.00
2023-03-30T13:31:17.205Z,57.15
2023-03-30T13:33:53.740Z,57.86
2023-03-30T13:36:26.261Z,57.48
2023-03-30T13:39:05.332Z,57.06
2023-03-30T13:41:44.909Z,56.75
2023-03-30T13:44:31.483Z,54.71
2023-03-30T13:47:08.595Z,55.57
2023-03-30T13:49:47.998Z,55.99
2023-03-30T13:52:20.379Z,54.08
2023-03-30T13:54:49.201Z,52.42
2023-03-30T13:57:22.961Z,53.38
2023-03-30T13:59:54.440Z,53.76
2023-03-30T14:02:25.347Z,53.65
2023-03-30T14:04:55.497Z,53.63
2023-03-30T14:07:36.492Z,53.89
2023-03-30T14:10:14.416Z,54.45
2023-03-30T14:12:49.162Z,54.44
2023-03-30T14:15:28.677Z,54.69
2023-03-30T14:17:59.802Z,55.18
2023-03-30T14:20:43.610Z,56.01
2023-03-30T14:23:19.448Z,55.64
2023-03-30T14:25:48.898Z,54.70
2023-03-30T14:28:19.227Z,54.74
2023-03-30T14:30:53.125Z,54.24
2023-03-30T14:33:22.029Z,53.87
2023-03-30T14:35:54.393Z,53.35
2023-03-30T14:38:25.180Z,53.15
2023-03-30T14:40:56.391Z,53.22
2023-03-30T14:43:26.840Z,53.09
2023-03-30T14:45:58.112Z,52.28
2023-03-30T14:48:31.833Z,52.20
2023-03-30T14:51:02.742Z,52.72
2023-03-30T14:53:32.207Z,52.42
2023-03-30T14:56:03.984Z,53.10
2023-03-30T14:58:34.024Z,52.80
2023-03-30T15:01:17.863Z,53.78
2023-03-30T15:03:48.744Z,54.00
2023-03-30T15:06:26.098Z,54.20
2023-03-30T15:09:03.275Z,53.70
2023-03-30T15:11:35.049Z,53.74
2023-03-30T15:14:09.849Z,54.17
2023-03-30T15:16:38.897Z,54.48
2023-03-30T15:19:13.134Z,54.38
2023-03-30T15:21:43.487Z,54.71
2023-03-30T15:24:18.120Z,54.54
2023-03-30T15:26:49.075Z,54.62
2023-03-30T15:29:52.576Z,54.21
2023-03-30T15:32:35.517Z,53.68
2023-03-30T15:35:22.376Z,53.59
2023-03-30T15:37:58.531Z,52.77
2023-03-30T15:40:34.026Z,53.50
2023-03-30T15:43:20.641Z,53.08
2023-03-30T15:45:52.892Z,53.54
2023-03-30T15:48:26.670Z,52.83
2023-03-30T15:50:57.832Z,52.83
2023-03-30T15:53:37.551Z,52.85
2023-03-30T15:56:08.868Z,53.03
2023-03-30T15:58:37.430Z,53.67
2023-03-30T16:01:06.891Z,53.97
2023-03-30T16:03:40.460Z,54.41
2023-03-30T16:06:13.996Z,54.85
2023-03-30T16:08:45.304Z,54.87
2023-03-30T16:11:16.376Z,55.81
2023-03-30T16:13:47.400Z,56.81
2023-03-30T16:16:18.677Z,57.59
2023-03-30T16:18:47.396Z,57.69
2023-03-30T16:21:18.552Z,58.32
2023-03-30T16:23:48.335Z,58.48
2023-03-30T16:26:16.740Z,59.08
2023-03-30T16:28:45.511Z,59.22
2023-03-30T16:31:18.538Z,59.77
2023-03-30T16:33:47.224Z,60.17
2023-03-30T16:36:16.851Z,60.34
2023-03-30T16:38:45.828Z,60.53
2023-03-30T16:41:19.642Z,60.66
2023-03-30T16:43:48.796Z,60.86
2023-03-30T16:46:19.153Z,60.90
2023-03-30T16:48:48.039Z,61.05
2023-03-30T16:51:16.744Z,60.91
2023-03-30T16:53:45.350Z,60.95
2023-03-30T16:56:18.830Z,61.04
2023-03-30T16:58:48.129Z,61.19
2023-03-30T17:01:18.860Z,61.55
2023-03-30T17:03:47.893Z,61.64
2023-03-30T17:06:17.258Z,61.81
2023-03-30T17:08:46.068Z,61.89
2023-03-30T17:11:14.680Z,62.02
2023-03-30T17:13:46.599Z,62.19
2023-03-30T17:16:16.761Z,62.21
2023-03-30T17:18:45.343Z,62.21
2023-03-30T17:21:16.610Z,62.64
2023-03-30T17:23:47.940Z,62.92
2023-03-30T17:26:16.921Z,62.80
2023-03-30T17:28:47.260Z,62.67
2023-03-30T17:31:18.106Z,62.75
2023-03-30T17:33:50.296Z,62.90
2023-03-30T17:36:21.876Z,63.14
2023-03-30T17:38:51.639Z,63.25
2023-03-30T17:44:59.941Z,63.69
2023-03-30T17:47:28.902Z,63.73
2023-03-30T17:49:58.339Z,63.88
2023-03-30T17:52:52.404Z,64.04
2023-03-30T17:55:23.323Z,64.50
2023-03-30T17:57:53.285Z,64.72
2023-03-30T18:01:56.239Z,64.59
2023-03-30T18:04:53.607Z,65.20
2023-03-30T18:07:26.928Z,65.17
2023-03-30T18:09:56.927Z,65.26
2023-03-30T18:12:28.088Z,65.42
2023-03-30T18:14:58.233Z,65.67
2023-03-30T18:17:27.248Z,65.46
2023-03-30T18:19:57.829Z,65.45
2023-03-30T18:22:26.635Z,65.58
2023-03-30T18:24:57.534Z,65.63
2023-03-30T18:27:26.144Z,65.67
2023-03-30T18:30:37.093Z,65.65
2023-03-30T18:33:08.315Z,65.92
2023-03-30T18:38:17.568Z,65.85
2023-03-30T18:40:49.561Z,65.78
2023-03-30T18:43:19.642Z,65.68
2023-03-30T18:45:50.603Z,65.38
2023-03-30T18:48:21.661Z,65.52
2023-03-30T18:50:53.104Z,65.93
2023-03-30T18:53:23.468Z,66.15
2023-03-30T18:55:53.551Z,66.48
2023-03-30T18:58:24.361Z,66.44
2023-03-30T19:00:53.967Z,66.28
2023-03-30T19:03:23.466Z,66.34
2023-03-30T19:05:53.561Z,66.76
2023-03-30T19:08:24.421Z,67.14
2023-03-30T19:10:55.637Z,67.68
2023-03-30T19:13:26.005Z,67.37
2023-03-30T19:15:54.743Z,67.70
2023-03-30T19:18:23.475Z,67.40
2023-03-30T19:20:55.632Z,67.60
2023-03-30T19:23:25.823Z,67.72
2023-03-30T19:25:55.359Z,67.72
2023-03-30T19:28:23.911Z,67.79
2023-03-30T19:30:52.692Z,67.85
2023-03-30T19:33:21.309Z,68.66
2023-03-30T19:35:49.689Z,68.61
2023-03-30T19:38:19.542Z,68.78
2023-03-30T19:40:48.046Z,69.21
2023-03-30T19:43:16.617Z,69.11
2023-03-30T19:45:51.777Z,69.03
2023-03-30T19:48:20.239Z,69.04
2023-03-30T19:50:49.696Z,69.50
2023-03-30T19:53:19.510Z,69.20
2023-03-30T19:55:49.719Z,69.35
2023-03-30T19:58:18.521Z,69.23
2023-03-30T20:00:50.497Z,69.23
2023-03-30T20:03:19.271Z,69.29
2023-03-30T20:05:52.054Z,69.26
2023-03-30T20:08:25.371Z,69.33
2023-03-30T20:10:56.609Z,69.34
2023-03-30T20:13:27.504Z,69.35
2023-03-30T20:15:57.018Z,69.04
2023-03-30T20:18:25.683Z,69.23
2023-03-30T20:20:54.055Z,69.09
2023-03-30T20:23:23.913Z,69.08
2023-03-30T20:25:54.336Z,69.31
2023-03-30T20:28:22.782Z,68.75
2023-03-30T20:30:51.243Z,68.57
2023-03-30T20:33:19.943Z,68.83
2023-03-30T20:35:52.692Z,68.60
2023-03-30T20:38:21.366Z,69.16
2023-03-30T20:40:59.282Z,69.69
2023-03-30T20:43:28.723Z,69.90
2023-03-30T20:46:02.477Z,69.59
2023-03-30T20:48:33.881Z,69.24
2023-03-30T20:51:04.656Z,69.08
2023-03-30T20:53:34.630Z,69.00
2023-03-30T20:56:05.889Z,69.78
2023-03-30T20:58:34.669Z,69.64
2023-03-30T21:01:12.824Z,69.46
2023-03-30T21:03:44.824Z,69.79
2023-03-30T21:06:18.301Z,69.63
2023-03-30T21:08:48.143Z,69.96
2023-03-30T21:11:18.132Z,70.13
2023-03-30T21:13:46.591Z,70.07
2023-03-30T21:16:15.177Z,69.85
2023-03-30T21:18:43.699Z,70.17
2023-03-30T21:21:12.201Z,70.37
2023-03-30T21:23:41.545Z,70.64
2023-03-30T21:26:09.992Z,70.01
2023-03-30T21:28:41.592Z,70.20
2023-03-30T21:31:12.261Z,70.67
2023-03-30T21:33:40.964Z,70.62
2023-03-30T21:36:10.579Z,70.69
2023-03-30T21:38:40.720Z,70.50
2023-03-30T21:41:12.522Z,70.87
2023-03-30T21:43:44.397Z,70.76
2023-03-30T21:46:14.325Z,70.55
2023-03-30T21:48:45.502Z,70.53
2023-03-30T21:51:15.588Z,70.77
2023-03-30T21:53:44.985Z,71.01
2023-03-30T21:56:13.663Z,71.44
2023-03-30T21:58:43.711Z,71.29
2023-03-30T22:01:13.172Z,71.29
2023-03-30T22:03:42.168Z,71.68
2023-03-30T22:06:13.451Z,71.14
2023-03-30T22:08:45.164Z,71.67
2023-03-30T22:11:15.451Z,72.45
2023-03-30T22:13:47.570Z,72.37
2023-03-30T22:16:18.840Z,72.01
2023-03-30T22:18:47.947Z,72.05
2023-03-30T22:21:19.012Z,72.08
2023-03-30T22:23:48.254Z,72.25
2023-03-30T22:26:17.125Z,72.50
2023-03-30T22:28:47.033Z,72.84
2023-03-30T22:31:17.237Z,73.00
2023-03-30T22:33:45.769Z,73.22
2023-03-30T22:36:19.716Z,73.38
2023-03-30T22:38:50.073Z,74.13
2023-03-30T22:41:24.139Z,73.91
2023-03-30T22:43:56.231Z,74.08
2023-03-30T22:46:27.396Z,74.18
2023-03-30T22:48:56.390Z,74.24
2023-03-30T22:51:26.745Z,74.66
2023-03-30T22:53:57.944Z,74.76
2023-03-30T22:56:27.463Z,74.78
2023-03-30T22:58:58.007Z,74.96
2023-03-30T23:01:29.230Z,75.15
2023-03-30T23:03:59.561Z,75.58
2023-03-30T23:06:28.252Z,75.51
2023-03-30T23:08:56.677Z,75.92
2023-03-30T23:11:26.529Z,75.88
2023-03-30T23:13:57.042Z,76.04
2023-03-30T23:16:27.658Z,76.68
2023-03-30T23:18:56.141Z,76.65
2023-03-30T23:21:24.534Z,76.79
2023-03-30T23:23:52.961Z,77.42
2023-03-30T23:26:21.576Z,77.08
2023-03-30T23:28:50.008Z,77.63
2023-03-30T23:31:19.941Z,77.61
2023-03-30T23:33:48.326Z,77.50
2023-03-30T23:36:17.699Z,78.13
2023-03-30T23:38:46.552Z,78.29
2023-03-30T23:41:16.352Z,77.84
2023-03-30T23:43:44.926Z,77.78
2023-03-30T23:46:13.649Z,78.08
2023-03-30T23:48:43.682Z,78.27
2023-03-30T23:51:12.465Z,78.25
2023-03-30T23:53:41.811Z,78.27
2023-03-30T23:56:13.879Z,78.28
2023-03-30T23:58:42.533Z,78.09
